Time;durP1;ratioP1;P1;durP2;ratioP2;P2;SDS_P1;SDS_P2;PMS_P1;PMS_P2;Temp;Humidity;BMP_temperature;BMP_pressure;BME280_temperature;BME280_humidity;BME280_pressure;Samples;Min_cycle;Max_cycle;Signal;HPM_P1;HPM_P2
2021/11/03 00:01:31;;;;;;;34.15;18.13;;;;;;;4.12;75.53;100338.25;5071291;28;20040;-63
2021/11/03 00:04:00;;;;;;;37.05;16.50;;;;;;;4.21;75.01;100339.63;5070964;28;20029;-63
2021/11/03 00:06:27;;;;;;;30.13;13.18;;;;;;;4.35;74.42;100346.94;5070573;28;20121;-63
2021/11/03 00:08:53;;;;;;;32.58;16.85;;;;;;;4.33;74.84;100352.31;5070921;28;20127;-63
2021/11/03 00:11:20;;;;;;;26.13;13.45;;;;;;;4.34;74.79;100348.75;5070927;28;20036;-63
2021/11/03 00:13:45;;;;;;;29.80;16.40;;;;;;;4.26;74.50;100337.63;5036329;28;20055;-63
2021/11/03 00:16:11;;;;;;;33.35;17.42;;;;;;;4.22;75.05;100336.06;5070547;28;20045;-63
2021/11/03 00:18:37;;;;;;;31.15;16.40;;;;;;;4.02;74.96;100306.00;5070288;28;20040;-63
2021/11/03 00:21:04;;;;;;;34.67;18.38;;;;;;;4.19;75.10;100342.34;5070702;28;20044;-63
2021/11/03 00:23:30;;;;;;;27.85;15.32;;;;;;;4.31;74.80;100341.78;5070527;28;20086;-62
2021/11/03 00:25:56;;;;;;;33.78;18.33;;;;;;;4.25;75.04;100325.31;5070160;28;20028;-64
2021/11/03 00:28:22;;;;;;;36.28;16.98;;;;;;;4.29;74.78;100329.53;5070284;28;20036;-62
2021/11/03 00:30:50;;;;;;;32.75;18.20;;;;;;;4.22;75.25;100328.97;5052647;28;20028;-63
2021/11/03 00:33:17;;;;;;;34.65;17.27;;;;;;;4.11;76.36;100328.59;5070795;28;20033;-63
2021/11/03 00:35:42;;;;;;;31.35;15.90;;;;;;;4.24;75.04;100335.06;5070836;28;20040;-66
2021/11/03 00:38:08;;;;;;;28.75;16.38;;;;;;;4.19;75.44;100313.19;5069901;28;20029;-63
2021/11/03 00:40:34;;;;;;;30.67;16.45;;;;;;;4.20;75.45;100320.19;5070270;28;20048;-62
2021/11/03 00:42:59;;;;;;;30.77;16.42;;;;;;;4.15;75.80;100328.38;5067295;28;20048;-62
2021/11/03 00:45:25;;;;;;;28.67;15.60;;;;;;;4.18;75.84;100327.38;5094208;28;20032;-62
2021/11/03 00:47:51;;;;;;;30.50;16.38;;;;;;;4.24;75.04;100326.22;5094766;28;20036;-63
2021/11/03 00:50:17;;;;;;;33.70;17.45;;;;;;;4.21;75.58;100326.38;5094609;28;20035;-62
2021/11/03 00:52:42;;;;;;;31.20;15.98;;;;;;;4.17;75.56;100325.66;5094713;28;20043;-62
2021/11/03 00:55:08;;;;;;;36.05;16.88;;;;;;;4.29;75.91;100332.19;5094777;28;20028;-62
2021/11/03 00:57:33;;;;;;;33.88;17.95;;;;;;;4.31;76.22;100317.94;5094948;28;20061;-62
2021/11/03 00:59:59;;;;;;;31.85;17.15;;;;;;;4.23;76.36;100335.13;5094573;28;20076;-64
2021/11/03 01:02:25;;;;;;;32.22;16.92;;;;;;;4.23;76.70;100324.50;5094362;28;20034;-61
2021/11/03 01:04:51;;;;;;;32.50;16.38;;;;;;;4.35;76.20;100323.97;5095295;28;20063;-63
2021/11/03 01:07:16;;;;;;;31.00;16.65;;;;;;;4.15;75.43;100259.47;5095240;28;20456;-63
2021/11/03 01:09:42;;;;;;;29.65;14.00;;;;;;;4.46;76.10;100326.06;5075899;28;20047;-62
2021/11/03 01:12:09;;;;;;;34.88;15.57;;;;;;;4.56;74.67;100321.19;5075665;28;20024;-62
2021/11/03 01:14:35;;;;;;;30.98;16.33;;;;;;;4.43;75.59;100308.53;5074452;28;20104;-63
2021/11/03 01:17:00;;;;;;;32.00;15.95;;;;;;;4.39;75.60;100306.97;5074348;28;20468;-62
2021/11/03 01:19:26;;;;;;;36.20;17.27;;;;;;;4.47;75.79;100308.41;5037194;28;20037;-63
2021/11/03 01:21:51;;;;;;;32.90;17.75;;;;;;;4.34;74.95;100278.94;5092345;28;20126;-63
2021/11/03 01:24:17;;;;;;;29.98;16.70;;;;;;;4.46;75.74;100304.88;5093941;28;20032;-62
2021/11/03 01:26:42;;;;;;;28.33;14.75;;;;;;;4.24;75.60;100282.06;5094110;28;20795;-62
2021/11/03 01:29:08;;;;;;;32.08;17.58;;;;;;;4.35;76.61;100308.06;5093212;28;20028;-62
2021/11/03 01:31:34;;;;;;;33.53;17.23;;;;;;;4.36;77.20;100315.06;5093880;28;20111;-61
2021/11/03 01:34:02;;;;;;;34.80;17.73;;;;;;;4.49;76.10;100315.34;5094371;28;20054;-62
2021/11/03 01:36:28;;;;;;;33.28;17.25;;;;;;;4.50;76.28;100317.06;5094236;28;20040;-62
2021/11/03 01:38:53;;;;;;;31.27;16.63;;;;;;;4.58;75.75;100299.00;5075868;28;20070;-62
2021/11/03 01:41:20;;;;;;;34.15;16.58;;;;;;;4.60;75.57;100290.97;5093491;28;20073;-63
2021/11/03 01:43:49;;;;;;;29.20;17.00;;;;;;;4.54;75.97;100309.81;5093878;28;20028;-62
2021/11/03 01:46:29;;;;;;;31.15;17.17;;;;;;;4.65;75.15;100288.06;5094015;28;20032;-63
2021/11/03 01:48:58;;;;;;;32.97;17.80;;;;;;;4.58;75.82;100292.81;5092886;28;20520;-62
2021/11/03 01:52:04;;;;;;;31.20;16.88;;;;;;;4.62;75.89;100286.44;5075556;28;20027;-64
2021/11/03 01:54:36;;;;;;;27.27;14.18;;;;;;;4.56;76.04;100282.28;5084296;28;20051;-63
2021/11/03 01:57:07;;;;;;;28.58;15.45;;;;;;;4.55;75.73;100285.88;5093356;28;20073;-63
2021/11/03 01:59:38;;;;;;;25.70;14.70;;;;;;;4.62;75.32;100286.44;5075196;28;20024;-63
2021/11/03 02:02:05;;;;;;;31.13;17.17;;;;;;;4.50;76.09;100293.22;5093071;28;20028;-63
2021/11/03 02:04:33;;;;;;;31.77;16.77;;;;;;;4.57;75.79;100293.75;5093440;28;20115;-62
2021/11/03 02:07:02;;;;;;;31.27;16.20;;;;;;;4.59;75.98;100284.78;5092788;28;20032;-63
2021/11/03 02:09:28;;;;;;;31.13;15.82;;;;;;;4.43;76.32;100282.03;5092638;28;20391;-61
2021/11/03 02:11:54;;;;;;;28.55;15.15;;;;;;;4.59;75.66;100286.59;5093419;28;20464;-62
2021/11/03 02:14:20;;;;;;;27.95;15.02;;;;;;;4.55;76.40;100285.88;5092530;28;20085;-62
2021/11/03 02:16:48;;;;;;;29.70;15.98;;;;;;;4.73;75.87;100300.03;5092661;28;20536;-62
2021/11/03 02:19:19;;;;;;;35.17;16.63;;;;;;;4.66;76.08;100285.38;5092694;28;20533;-62
2021/11/03 02:21:59;;;;;;;29.25;15.02;;;;;;;4.66;75.98;100284.50;5092827;28;20375;-63
2021/11/03 02:24:29;;;;;;;29.95;16.50;;;;;;;4.66;76.14;100284.50;5093127;28;20036;-62
2021/11/03 02:26:58;;;;;;;35.90;17.77;;;;;;;4.65;75.49;100294.25;5092761;28;20032;-63
2021/11/03 02:29:24;;;;;;;33.58;17.15;;;;;;;4.63;76.26;100290.81;5075209;28;20032;-61
2021/11/03 02:31:53;;;;;;;31.85;16.27;;;;;;;4.76;75.17;100285.78;5092435;28;20036;-61
2021/11/03 02:34:25;;;;;;;25.55;12.23;;;;;;;4.69;75.71;100282.56;5092264;28;20070;-62
2021/11/03 02:37:02;;;;;;;30.30;16.17;;;;;;;4.62;76.44;100281.16;5092786;28;20112;-62
2021/11/03 02:39:36;;;;;;;33.05;16.80;;;;;;;4.59;76.14;100276.00;5074524;28;20048;-61
2021/11/03 02:42:03;;;;;;;35.23;16.63;;;;;;;4.65;75.75;100277.47;5092408;28;20028;-63
2021/11/03 02:44:31;;;;;;;30.23;16.73;;;;;;;4.63;75.93;100285.53;5093230;28;20426;-61
2021/11/03 02:46:56;;;;;;;27.02;13.25;;;;;;;4.51;75.31;100238.38;5092636;28;20523;-62
2021/11/03 02:49:22;;;;;;;34.13;17.95;;;;;;;4.51;76.60;100256.94;5091832;28;20111;-62
2021/11/03 02:51:47;;;;;;;29.70;15.13;;;;;;;4.60;76.63;100273.25;5092533;28;20754;-64
2021/11/03 02:54:16;;;;;;;27.85;15.73;;;;;;;4.74;76.25;100277.88;5092481;28;20027;-63
2021/11/03 02:56:47;;;;;;;33.45;16.80;;;;;;;4.73;75.93;100273.50;5091807;28;20028;-62
2021/11/03 02:59:15;;;;;;;27.48;14.23;;;;;;;4.50;76.15;100218.09;5091764;28;20089;-63
2021/11/03 03:01:50;;;;;;;32.47;16.55;;;;;;;4.67;76.29;100254.38;5092492;28;20024;-61
2021/11/03 03:04:24;;;;;;;33.92;16.88;;;;;;;4.68;76.51;100259.63;5091727;28;20053;-62
2021/11/03 03:06:50;;;;;;;33.08;16.63;;;;;;;4.63;76.65;100266.94;5091826;28;20097;-61
2021/11/03 03:09:17;;;;;;;28.75;14.82;;;;;;;4.59;77.13;100268.88;5092306;28;20036;-61
2021/11/03 03:11:46;;;;;;;25.17;13.00;;;;;;;4.79;76.10;100269.72;5092272;28;20031;-62
2021/11/03 03:14:13;;;;;;;32.20;14.50;;;;;;;4.77;76.01;100258.31;5091656;28;20032;-63
2021/11/03 03:16:39;;;;;;;30.00;16.63;;;;;;;4.76;76.13;100267.22;5073143;28;20480;-62
2021/11/03 03:19:04;;;;;;;37.08;18.33;;;;;;;4.74;75.74;100256.66;5070736;28;20032;-63
2021/11/03 03:21:31;;;;;;;34.03;17.80;;;;;;;4.66;76.73;100248.22;5052341;28;20028;-61
2021/11/03 03:23:58;;;;;;;36.40;17.15;;;;;;;4.68;76.47;100256.97;5052654;28;20107;-62
2021/11/03 03:26:24;;;;;;;33.33;17.75;;;;;;;4.70;76.70;100260.41;5070938;28;20452;-63
2021/11/03 03:28:51;;;;;;;28.80;14.98;;;;;;;4.64;76.45;100247.44;5071414;28;20218;-62
2021/11/03 03:31:17;;;;;;;35.05;17.20;;;;;;;4.55;76.86;100221.38;5072008;28;20104;-65
2021/11/03 03:33:46;;;;;;;33.45;16.90;;;;;;;4.52;77.40;100208.25;5071118;28;20116;-62
2021/11/03 03:36:12;;;;;;;35.38;17.67;;;;;;;4.75;76.76;100260.19;5069270;28;20449;-63
2021/11/03 03:38:38;;;;;;;34.70;17.45;;;;;;;4.87;75.83;100234.84;5070861;28;20085;-62
2021/11/03 03:41:04;;;;;;;32.83;14.98;;;;;;;4.89;76.24;100256.84;5071580;28;20024;-63
2021/11/03 03:43:29;;;;;;;35.67;17.63;;;;;;;4.84;76.51;100233.19;5071703;28;20067;-63
2021/11/03 03:45:55;;;;;;;32.85;17.40;;;;;;;4.49;77.09;100197.81;5053110;28;20048;-63
2021/11/03 03:48:20;;;;;;;37.55;18.27;;;;;;;5.00;75.91;100243.88;5053308;28;20033;-62
2021/11/03 03:50:46;;;;;;;34.25;18.15;;;;;;;4.95;76.12;100229.16;5071185;28;20024;-64
2021/11/03 03:53:11;;;;;;;40.55;18.20;;;;;;;4.92;76.52;100226.63;5071211;28;20043;-64
2021/11/03 03:55:38;;;;;;;25.55;12.48;;;;;;;5.01;75.54;100237.63;5052339;28;20036;-62
2021/11/03 03:58:05;;;;;;;35.10;17.73;;;;;;;4.95;76.30;100243.25;5052514;28;20024;-62
2021/11/03 04:00:31;;;;;;;39.78;18.08;;;;;;;4.88;76.53;100237.41;5071658;28;20024;-62
2021/11/03 04:02:57;;;;;;;32.45;17.40;;;;;;;4.89;76.76;100227.66;5070553;28;20067;-62
2021/11/03 04:05:24;;;;;;;35.60;17.83;;;;;;;4.93;76.57;100228.34;5070809;28;20114;-63
2021/11/03 04:07:50;;;;;;;35.75;18.17;;;;;;;4.83;76.88;100215.56;5070009;28;20461;-64
2021/11/03 04:10:17;;;;;;;30.60;16.88;;;;;;;4.98;76.59;100231.66;5070117;28;20029;-60
2021/11/03 04:12:43;;;;;;;36.90;19.20;;;;;;;4.95;76.93;100214.06;5070246;28;20488;-65
2021/11/03 04:15:12;;;;;;;33.03;15.15;;;;;;;5.07;76.28;100222.34;5051542;28;20029;-64
2021/11/03 04:17:37;;;;;;;34.20;17.55;;;;;;;5.09;76.49;100229.28;5069369;28;20071;-63
2021/11/03 04:20:05;;;;;;;34.90;15.85;;;;;;;4.83;76.46;100185.53;5070467;28;20041;-63
2021/11/03 04:22:30;;;;;;;29.90;15.10;;;;;;;5.17;75.67;100244.81;5070243;28;20040;-64
2021/11/03 04:24:56;;;;;;;38.83;19.25;;;;;;;5.10;75.68;100233.66;5070061;28;20032;-63
2021/11/03 04:27:21;;;;;;;33.67;16.73;;;;;;;4.99;75.44;100196.22;5070184;28;20502;-63
2021/11/03 04:29:47;;;;;;;39.20;18.70;;;;;;;5.09;75.89;100234.59;5070098;28;20032;-64
2021/11/03 04:32:12;;;;;;;34.80;16.00;;;;;;;5.13;76.38;100233.50;5052528;28;20028;-63
2021/11/03 04:34:38;;;;;;;37.65;17.02;;;;;;;5.05;76.11;100224.22;5069879;28;20435;-62
2021/11/03 04:37:04;;;;;;;40.10;17.90;;;;;;;5.03;76.16;100219.84;5052145;28;20120;-62
2021/11/03 04:39:29;;;;;;;38.08;18.70;;;;;;;4.61;76.97;100170.69;5070717;28;20063;-62
2021/11/03 04:41:55;;;;;;;29.65;14.95;;;;;;;5.16;76.32;100259.03;5070233;28;20422;-62
2021/11/03 04:44:20;;;;;;;36.03;17.95;;;;;;;5.28;75.65;100246.94;5070227;28;20108;-62
2021/11/03 04:46:46;;;;;;;37.45;18.52;;;;;;;5.18;76.38;100262.47;5052710;28;20086;-62
2021/11/03 04:49:11;;;;;;;37.00;17.88;;;;;;;4.94;76.49;100201.75;5071010;28;20384;-63
2021/11/03 04:51:37;;;;;;;37.15;18.40;;;;;;;5.21;76.29;100257.00;5069858;28;20033;-60
2021/11/03 04:54:02;;;;;;;39.13;20.63;;;;;;;5.29;75.78;100246.84;5070364;28;20060;-61
2021/11/03 04:56:30;;;;;;;42.15;20.27;;;;;;;5.28;76.04;100252.25;5070677;28;20396;-60
2021/11/03 04:58:57;;;;;;;42.38;20.92;;;;;;;5.16;76.49;100274.97;5069900;28;20043;-57
2021/11/03 05:01:24;;;;;;;37.22;18.58;;;;;;;5.31;76.09;100268.00;5069851;28;20111;-60
2021/11/03 05:03:51;;;;;;;38.83;18.50;;;;;;;5.29;76.03;100273.38;5069884;28;20029;-62
2021/11/03 05:06:19;;;;;;;42.40;21.65;;;;;;;5.39;75.55;100267.63;5070670;28;20020;-61
2021/11/03 05:08:45;;;;;;;41.15;20.00;;;;;;;5.29;75.98;100276.03;5069861;28;20540;-62
2021/11/03 05:11:10;;;;;;;36.67;17.02;;;;;;;5.42;75.73;100268.28;5051684;28;20099;-63
2021/11/03 05:13:36;;;;;;;37.50;18.25;;;;;;;5.38;75.77;100260.59;5070033;28;20033;-62
2021/11/03 05:16:02;;;;;;;41.08;20.65;;;;;;;5.27;76.35;100254.03;5070339;28;20416;-63
2021/11/03 05:18:28;;;;;;;37.00;17.58;;;;;;;5.44;75.80;100246.97;5069803;28;20041;-63
2021/11/03 05:20:53;;;;;;;42.22;21.35;;;;;;;5.29;76.24;100249.47;5051507;28;20063;-62
2021/11/03 05:23:24;;;;;;;44.55;20.45;;;;;;;5.48;75.24;100255.66;5069875;28;20037;-63
2021/11/03 05:25:54;;;;;;;44.75;21.30;;;;;;;5.48;75.37;100264.47;5069945;28;20078;-62
2021/11/03 05:28:21;;;;;;;39.85;21.05;;;;;;;5.22;76.04;100233.97;5071596;28;20157;-62
2021/11/03 05:30:46;;;;;;;43.47;22.20;;;;;;;5.46;75.60;100253.94;5055517;28;20033;-62
2021/11/03 05:33:12;;;;;;;44.30;21.75;;;;;;;5.41;75.68;100250.63;5072445;28;20025;-63
2021/11/03 05:35:38;;;;;;;42.72;20.58;;;;;;;5.43;76.22;100264.72;5073807;28;20107;-62
2021/11/03 05:38:04;;;;;;;43.50;21.10;;;;;;;5.53;75.36;100257.09;5074109;28;20036;-61
2021/11/03 05:40:30;;;;;;;39.88;18.27;;;;;;;5.72;74.91;100264.09;5073576;28;20041;-62
2021/11/03 05:42:56;;;;;;;44.10;22.33;;;;;;;5.37;75.12;100221.69;5072813;28;20036;-63
2021/11/03 05:45:21;;;;;;;28.42;13.05;;;;;;;5.43;75.72;100238.16;5073322;28;20073;-65
2021/11/03 05:47:48;;;;;;;39.78;19.42;;;;;;;5.84;74.00;100262.59;5072458;28;20650;-64
2021/11/03 05:50:20;;;;;;;44.22;23.25;;;;;;;5.67;74.99;100266.16;5073542;28;20039;-63
2021/11/03 05:52:45;;;;;;;42.40;21.15;;;;;;;5.74;74.55;100288.78;5073214;28;20043;-62
2021/11/03 05:55:12;;;;;;;43.08;22.80;;;;;;;5.64;74.99;100275.13;5073591;28;20024;-62
2021/11/03 05:57:39;;;;;;;46.35;23.00;;;;;;;5.67;74.71;100284.75;5073050;28;20131;-65
2021/11/03 06:00:16;;;;;;;46.75;21.23;;;;;;;5.78;74.49;100270.91;5054021;28;20477;-61
2021/11/03 06:02:42;;;;;;;38.88;20.23;;;;;;;5.69;74.60;100272.25;5055019;28;20039;-63
2021/11/03 06:05:08;;;;;;;39.58;20.27;;;;;;;5.78;74.01;100287.69;5072617;28;20032;-62
2021/11/03 06:07:34;;;;;;;40.40;21.92;;;;;;;5.68;74.55;100263.44;5054977;28;20481;-62
2021/11/03 06:10:02;;;;;;;42.67;22.10;;;;;;;5.73;74.65;100266.69;5073018;28;20269;-64
2021/11/03 06:12:29;;;;;;;43.50;22.35;;;;;;;5.66;74.90;100269.75;5073047;28;20029;-62
2021/11/03 06:14:54;;;;;;;41.40;21.17;;;;;;;5.69;74.86;100285.53;5072521;28;20032;-65
2021/11/03 06:17:19;;;;;;;46.38;21.65;;;;;;;5.80;74.57;100296.47;5071721;28;20041;-63
2021/11/03 06:19:45;;;;;;;38.20;19.73;;;;;;;5.86;74.15;100281.97;5073155;28;20041;-59
2021/11/03 06:22:10;;;;;;;45.38;22.65;;;;;;;5.78;74.19;100258.47;5072657;28;20032;-60
2021/11/03 06:24:37;;;;;;;46.45;23.75;;;;;;;5.78;74.39;100278.88;5072198;28;20036;-61
2021/11/03 06:27:04;;;;;;;37.28;18.13;;;;;;;5.81;74.45;100284.91;5072656;28;20047;-62
2021/11/03 06:29:30;;;;;;;49.03;24.38;;;;;;;5.88;73.79;100265.00;5072863;28;20045;-63
2021/11/03 06:31:55;;;;;;;45.38;23.75;;;;;;;5.92;74.00;100264.84;5054523;28;20060;-63
2021/11/03 06:34:21;;;;;;;46.25;23.38;;;;;;;5.79;74.20;100270.84;5054669;28;20101;-63
2021/11/03 06:36:46;;;;;;;37.78;17.90;;;;;;;5.82;74.17;100261.81;5066642;28;20024;-64
2021/11/03 06:39:12;;;;;;;47.42;23.60;;;;;;;5.79;74.91;100248.69;5043296;28;20055;-62
2021/11/03 06:41:38;;;;;;;47.63;23.63;;;;;;;5.92;74.46;100248.91;5059707;28;20025;-65
2021/11/03 06:44:04;;;;;;;48.38;22.88;;;;;;;6.00;73.94;100239.56;5043791;28;20100;-64
2021/11/03 06:46:30;;;;;;;48.55;23.50;;;;;;;6.04;73.89;100258.91;5061663;28;20021;-63
2021/11/03 06:48:56;;;;;;;46.08;23.73;;;;;;;5.89;73.82;100232.19;5059459;28;20496;-62
2021/11/03 06:51:22;;;;;;;47.88;24.60;;;;;;;6.07;73.72;100237.47;5061358;28;20052;-62
2021/11/03 06:53:48;;;;;;;43.88;21.17;;;;;;;6.12;73.46;100239.84;5061675;28;20029;-62
2021/11/03 06:56:13;;;;;;;53.78;25.38;;;;;;;6.16;73.18;100255.56;5059149;28;20017;-62
2021/11/03 06:58:39;;;;;;;50.72;25.00;;;;;;;6.09;73.09;100248.88;5059868;28;20103;-62
2021/11/03 07:01:08;;;;;;;47.25;24.58;;;;;;;6.06;73.50;100275.63;5060836;28;20072;-61
2021/11/03 07:03:35;;;;;;;51.03;26.05;;;;;;;6.05;73.80;100238.47;5041708;28;20067;-61
2021/11/03 07:06:01;;;;;;;43.08;19.60;;;;;;;6.34;72.17;100263.47;5061105;28;20029;-63
2021/11/03 07:08:27;;;;;;;50.88;24.52;;;;;;;6.29;72.57;100260.22;5042444;28;20116;-63
2021/11/03 07:10:55;;;;;;;52.90;26.40;;;;;;;6.05;73.21;100246.47;5071887;28;20060;-68
2021/11/03 07:13:23;;;;;;;53.70;26.00;;;;;;;6.17;72.83;100259.94;5065868;28;20032;-60
2021/11/03 07:15:50;;;;;;;47.72;25.42;;;;;;;6.04;73.65;100253.59;5062201;28;20044;-66
2021/11/03 07:18:17;;;;;;;50.55;23.23;;;;;;;6.20;72.67;100234.09;5069620;28;20037;-66
2021/11/03 07:20:45;;;;;;;51.45;23.40;;;;;;;6.16;72.45;100230.78;5061162;28;20890;-67
2021/11/03 07:23:11;;;;;;;50.55;26.00;;;;;;;6.21;72.66;100270.38;5055781;28;20508;-64
2021/11/03 07:25:37;;;;;;;53.72;28.00;;;;;;;6.23;72.62;100226.84;5066773;28;20032;-66
2021/11/03 07:28:03;;;;;;;58.30;26.10;;;;;;;6.32;72.34;100241.41;5055648;28;20024;-65
2021/11/03 07:30:32;;;;;;;43.55;20.17;;;;;;;6.50;71.75;100228.88;5062446;28;20033;-66
2021/11/03 07:32:58;;;;;;;54.63;28.10;;;;;;;6.45;71.87;100221.13;5064997;28;20427;-63
2021/11/03 07:35:24;;;;;;;49.58;25.05;;;;;;;6.40;71.86;100252.47;5042750;28;20033;-66
2021/11/03 07:37:50;;;;;;;47.83;25.33;;;;;;;6.36;72.04;100253.59;5066643;28;20079;-65
2021/11/03 07:40:21;;;;;;;51.28;25.98;;;;;;;6.45;71.94;100261.03;5058145;28;20419;-65
2021/11/03 07:42:47;;;;;;;51.75;24.75;;;;;;;6.47;71.20;100253.81;5069208;28;20040;-64
2021/11/03 07:45:13;;;;;;;49.13;27.55;;;;;;;6.36;71.82;100232.31;5054738;28;20465;-65
2021/11/03 07:47:39;;;;;;;50.03;19.77;;;;;;;6.45;71.93;100241.56;5066354;28;20139;-64
2021/11/03 07:50:10;;;;;;;48.63;25.73;;;;;;;6.40;72.14;100233.84;5038659;28;20052;-62
2021/11/03 07:52:35;;;;;;;51.55;26.92;;;;;;;6.52;71.43;100213.66;5059414;28;20025;-60
2021/11/03 07:55:01;;;;;;;50.25;28.17;;;;;;;6.46;71.39;100212.22;5059679;28;20044;-65
2021/11/03 07:57:26;;;;;;;47.13;25.52;;;;;;;6.38;72.26;100217.13;5066071;28;20028;-64
2021/11/03 07:59:51;;;;;;;51.22;25.60;;;;;;;6.57;71.69;100219.56;5052376;28;20104;-66
2021/11/03 08:02:17;;;;;;;50.63;25.27;;;;;;;6.61;71.42;100215.78;5039194;28;20048;-67
2021/11/03 08:04:42;;;;;;;46.28;24.80;;;;;;;6.64;70.79;100217.44;5058487;28;20161;-65
2021/11/03 08:07:08;;;;;;;50.85;26.75;;;;;;;6.62;71.26;100190.06;5063987;28;20033;-66
2021/11/03 08:09:34;;;;;;;54.13;26.60;;;;;;;6.77;70.68;100203.41;5069810;28;20058;-65
2021/11/03 08:12:02;;;;;;;50.03;26.20;;;;;;;6.79;70.52;100217.50;5030596;28;20040;-66
2021/11/03 08:14:30;;;;;;;48.25;24.67;;;;;;;6.84;70.38;100194.13;5058621;28;20020;-66
2021/11/03 08:16:58;;;;;;;47.55;24.33;;;;;;;6.79;70.63;100193.53;5066737;28;20129;-67
2021/11/03 08:19:28;;;;;;;48.65;26.73;;;;;;;6.81;70.69;100203.13;5047916;28;20395;-69
2021/11/03 08:21:54;;;;;;;50.17;26.65;;;;;;;6.79;70.75;100188.22;5039424;28;20232;-69
2021/11/03 08:24:19;;;;;;;48.30;25.65;;;;;;;6.84;70.70;100216.25;5044286;28;20473;-68
2021/11/03 08:26:51;;;;;;;46.35;24.48;;;;;;;6.75;69.87;100182.22;5060265;28;20025;-70
2021/11/03 08:29:16;;;;;;;48.17;25.33;;;;;;;6.78;69.55;100150.09;5053789;28;20110;-68
2021/11/03 08:31:42;;;;;;;48.75;25.60;;;;;;;6.61;70.73;100151.09;5066098;28;20048;-67
2021/11/03 08:34:09;;;;;;;47.20;25.65;;;;;;;7.07;69.96;100199.88;5058100;28;20060;-65
2021/11/03 08:36:35;;;;;;;40.25;21.63;;;;;;;7.12;69.43;100196.00;5034496;28;20028;-64
2021/11/03 08:39:04;;;;;;;49.88;28.13;;;;;;;7.00;69.96;100237.53;5069422;28;20032;-65
2021/11/03 08:41:30;;;;;;;48.47;26.10;;;;;;;6.84;70.05;100164.84;5068168;28;20051;-64
2021/11/03 08:43:56;;;;;;;48.92;27.00;;;;;;;6.94;69.80;100183.78;5069378;28;20028;-67
2021/11/03 08:46:22;;;;;;;47.22;24.45;;;;;;;7.06;69.59;100192.84;5067398;28;20058;-68
2021/11/03 08:48:56;;;;;;;49.33;25.40;;;;;;;7.02;69.63;100182.38;5059078;28;20040;-72
2021/11/03 08:51:23;;;;;;;39.03;18.88;;;;;;;7.17;69.53;100209.88;5050887;28;20032;-67
2021/11/03 08:53:49;;;;;;;48.97;22.63;;;;;;;7.03;68.73;100161.91;5052540;28;20349;-71
2021/11/03 08:56:16;;;;;;;44.67;24.70;;;;;;;7.15;68.73;100187.81;5063690;28;20025;-65
2021/11/03 08:58:41;;;;;;;55.50;26.23;;;;;;;6.89;69.23;100165.41;5057225;28;20036;-70
2021/11/03 09:01:07;;;;;;;53.17;27.30;;;;;;;7.00;69.77;100181.63;5072237;28;20107;-71
2021/11/03 09:03:35;;;;;;;51.25;27.63;;;;;;;7.03;69.69;100184.09;5068172;28;20028;-68
2021/11/03 09:06:01;;;;;;;41.60;22.73;;;;;;;7.17;69.32;100177.06;5055395;28;20141;-69
2021/11/03 09:08:28;;;;;;;50.72;26.58;;;;;;;7.28;68.27;100187.06;5072422;28;20427;-68
2021/11/03 09:10:56;;;;;;;52.47;26.55;;;;;;;7.20;68.75;100152.91;5060073;28;20396;-72
2021/11/03 09:13:26;;;;;;;51.20;26.65;;;;;;;7.17;69.53;100155.75;5081794;28;20205;-68
2021/11/03 09:15:52;;;;;;;50.28;28.00;;;;;;;7.15;68.93;100169.19;5051938;28;20132;-69
2021/11/03 09:18:19;;;;;;;48.53;27.17;;;;;;;6.92;69.63;100127.13;5063086;28;20313;-71
2021/11/03 09:20:46;;;;;;;52.47;27.45;;;;;;;7.24;69.33;100146.47;5066565;28;20044;-73
2021/11/03 09:23:12;;;;;;;50.70;25.77;;;;;;;7.42;68.25;100162.22;5053560;28;20032;-73
2021/11/03 09:25:38;;;;;;;47.20;28.17;;;;;;;7.27;68.42;100140.94;5041747;28;20036;-69
2021/11/03 09:28:04;;;;;;;47.72;27.08;;;;;;;7.19;68.87;100145.88;5072205;28;20448;-71
2021/11/03 09:30:31;;;;;;;44.30;26.67;;;;;;;7.28;69.12;100174.63;5069826;28;20032;-70
2021/11/03 09:32:59;;;;;;;49.63;27.58;;;;;;;7.23;68.92;100133.22;5071679;28;20060;-71
2021/11/03 09:35:30;;;;;;;51.65;28.33;;;;;;;7.34;69.12;100136.06;5071830;28;20074;-68
2021/11/03 09:37:57;;;;;;;47.28;27.83;;;;;;;7.39;68.64;100146.44;5059192;28;20032;-67
2021/11/03 09:40:48;;;;;;;49.33;26.95;;;;;;;7.45;68.69;100149.59;5060379;28;20040;-73
2021/11/03 09:43:46;;;;;;;51.00;28.38;;;;;;;7.59;68.19;100138.06;5035427;28;20032;-70
2021/11/03 09:46:22;;;;;;;53.33;29.65;;;;;;;7.58;67.78;100154.13;5044293;28;20036;-72
2021/11/03 09:49:00;;;;;;;47.63;29.02;;;;;;;7.46;68.83;100142.44;5060382;28;20044;-70
2021/11/03 09:51:29;;;;;;;50.60;28.42;;;;;;;7.45;68.40;100140.72;5069691;28;20056;-68
2021/11/03 09:53:58;;;;;;;49.33;28.80;;;;;;;7.38;68.86;100139.41;5021586;28;20032;-69
2021/11/03 09:56:46;;;;;;;53.03;28.42;;;;;;;7.27;68.72;100101.00;5036893;28;20028;-73
2021/11/03 09:59:40;;;;;;;48.63;27.23;;;;;;;7.62;68.29;100158.34;5051059;28;20032;-69
2021/11/03 10:02:28;;;;;;;47.35;27.95;;;;;;;7.49;68.71;100152.06;5054075;28;20036;-69
2021/11/03 10:05:05;;;;;;;51.05;28.52;;;;;;;7.49;69.11;100128.06;5018313;28;20543;-72
2021/11/03 10:07:55;;;;;;;52.30;28.08;;;;;;;7.48;69.25;100137.91;5035508;28;20417;-66
2021/11/03 10:10:34;;;;;;;49.97;25.75;;;;;;;7.65;68.64;100122.63;5072898;28;20035;-72
2021/11/03 10:13:13;;;;;;;47.00;25.95;;;;;;;7.81;68.13;100136.69;5062775;28;20025;-68
2021/11/03 10:15:52;;;;;;;48.90;28.63;;;;;;;7.63;68.32;100138.72;5067405;28;20110;-76
2021/11/03 10:18:21;;;;;;;49.17;24.90;;;;;;;7.74;68.13;100124.72;5040549;28;20107;-70
2021/11/03 10:21:18;;;;;;;50.05;28.92;;;;;;;7.69;68.93;100122.34;5061731;28;20041;-70
2021/11/03 10:24:13;;;;;;;48.80;27.40;;;;;;;7.74;68.78;100108.72;5069021;28;20162;-75
2021/11/03 10:27:14;;;;;;;53.85;29.65;;;;;;;7.77;68.94;100113.88;5045187;28;20057;-72
2021/11/03 10:29:50;;;;;;;54.38;29.73;;;;;;;7.81;68.73;100141.16;5079079;28;20055;-75
2021/11/03 10:32:30;;;;;;;49.58;27.05;;;;;;;7.81;68.84;100119.84;5071626;28;20552;-73
2021/11/03 10:35:14;;;;;;;51.40;29.70;;;;;;;7.31;69.41;100064.34;5073040;28;20115;-74
2021/11/03 10:37:44;;;;;;;52.70;29.77;;;;;;;7.19;70.49;100065.97;5037891;28;20025;-75
2021/11/03 10:40:22;;;;;;;50.85;29.40;;;;;;;7.52;70.50;100098.56;5070576;28;20066;-77
2021/11/03 10:42:56;;;;;;;51.92;28.27;;;;;;;7.52;70.39;100102.09;5072455;28;20090;-74
2021/11/03 10:45:37;;;;;;;53.97;30.90;;;;;;;7.51;70.42;100113.72;5054276;28;20020;-75
2021/11/03 10:48:24;;;;;;;48.38;29.50;;;;;;;7.51;71.11;100087.06;5051620;28;20117;-76
2021/11/03 10:50:55;;;;;;;50.10;28.23;;;;;;;7.43;71.28;100105.34;5037470;28;20056;-65
2021/11/03 10:53:28;;;;;;;51.53;28.98;;;;;;;7.29;72.06;100077.78;5072593;28;20032;-68
2021/11/03 10:56:03;;;;;;;48.65;28.85;;;;;;;7.37;72.04;100093.28;5054341;28;20037;-74
2021/11/03 10:58:37;;;;;;;47.47;28.67;;;;;;;7.44;72.07;100085.72;5053573;28;20032;-75
2021/11/03 11:01:24;;;;;;;45.67;27.27;;;;;;;7.55;71.78;100093.03;5037402;28;20021;-67
2021/11/03 11:03:58;;;;;;;41.13;25.13;;;;;;;7.59;71.46;100079.44;5033485;28;20035;-65
2021/11/03 11:06:31;;;;;;;49.42;28.85;;;;;;;7.57;71.80;100100.00;5059685;28;20112;-67
2021/11/03 11:09:03;;;;;;;42.47;26.13;;;;;;;7.54;72.02;100089.53;5071090;28;20139;-66
2021/11/03 11:11:30;;;;;;;45.42;26.95;;;;;;;7.63;71.30;100079.22;5071443;28;20520;-66
2021/11/03 11:14:01;;;;;;;40.45;24.55;;;;;;;7.50;71.57;100073.84;5071541;28;20028;-66
2021/11/03 11:16:30;;;;;;;44.15;25.38;;;;;;;7.55;71.42;100079.72;5070898;28;20048;-65
2021/11/03 11:19:16;;;;;;;43.58;24.92;;;;;;;7.58;72.29;100082.19;5070339;28;20076;-67
2021/11/03 11:22:00;;;;;;;37.17;22.23;;;;;;;7.54;72.08;100062.03;5070132;28;20451;-68
2021/11/03 11:24:38;;;;;;;46.38;26.10;;;;;;;7.45;71.81;100052.81;5052789;28;20050;-70